Time;durP1;ratioP1;P1;durP2;ratioP2;P2;SDS_P1;SDS_P2;PMS_P1;PMS_P2;Temp;Humidity;BMP_temperature;BMP_pressure;BME280_temperature;BME280_humidity;BME280_pressure;Samples;Min_cycle;Max_cycle;Signal;HPM_P1;HPM_P2
2022/11/30 00:01:09;;;;;;;15.35;10.95;;;9.20;88.20;;;;;;5030669;28;20041;-87
2022/11/30 00:03:35;;;;;;;18.15;12.77;;;9.20;88.20;;;;;;5022613;28;20385;-86
2022/11/30 00:06:05;;;;;;;15.82;12.05;;;9.20;88.10;;;;;;5034370;28;20025;-85
2022/11/30 00:08:31;;;;;;;20.33;13.02;;;9.20;88.20;;;;;;5012574;28;20530;-87
2022/11/30 00:10:56;;;;;;;15.10;11.60;;;9.30;88.20;;;;;;5030114;28;20112;-86
2022/11/30 00:13:22;;;;;;;18.50;13.10;;;9.30;88.10;;;;;;5029152;28;20021;-86
2022/11/30 00:15:48;;;;;;;16.52;12.18;;;9.20;88.00;;;;;;5017310;28;20124;-86
2022/11/30 00:18:16;;;;;;;16.45;11.68;;;9.20;88.00;;;;;;5024297;28;20216;-86
2022/11/30 00:20:42;;;;;;;15.45;11.57;;;9.30;88.10;;;;;;5025034;28;20123;-86
2022/11/30 00:23:08;;;;;;;16.83;12.30;;;9.20;88.00;;;;;;5030400;28;20509;-86
2022/11/30 00:25:35;;;;;;;17.63;11.88;;;9.20;88.00;;;;;;5019866;28;20021;-86
2022/11/30 00:28:01;;;;;;;15.13;10.15;;;9.30;88.00;;;;;;5028616;28;20029;-85
2022/11/30 00:30:26;;;;;;;17.17;12.40;;;9.30;88.10;;;;;;5030327;28;20124;-85
2022/11/30 00:32:58;;;;;;;15.45;11.82;;;9.30;87.90;;;;;;5028413;28;20559;-85
2022/11/30 00:35:24;;;;;;;15.05;11.20;;;9.30;87.90;;;;;;5026603;28;20025;-85
2022/11/30 00:37:49;;;;;;;16.17;11.38;;;9.30;87.80;;;;;;5051728;28;20183;-86
2022/11/30 00:40:15;;;;;;;15.18;10.50;;;9.30;87.90;;;;;;5032277;28;20083;-86
2022/11/30 00:42:41;;;;;;;14.63;10.80;;;9.30;88.00;;;;;;5043547;28;20035;-87
2022/11/30 00:45:07;;;;;;;15.95;11.25;;;9.30;87.90;;;;;;5052521;28;20027;-86
2022/11/30 00:47:32;;;;;;;16.90;12.05;;;9.30;87.80;;;;;;5033889;28;20373;-86
2022/11/30 00:49:58;;;;;;;14.88;11.40;;;9.30;87.70;;;;;;5033763;28;20075;-86
2022/11/30 00:52:23;;;;;;;14.63;11.05;;;9.30;87.80;;;;;;5038235;28;20540;-85
2022/11/30 00:54:49;;;;;;;15.73;10.88;;;9.30;87.70;;;;;;5051899;28;20365;-86
2022/11/30 00:57:14;;;;;;;15.68;11.32;;;9.40;87.70;;;;;;5033439;28;20483;-85
2022/11/30 00:59:40;;;;;;;13.63;9.55;;;9.40;87.60;;;;;;5051660;28;20096;-85
2022/11/30 01:02:05;;;;;;;14.55;10.85;;;9.30;87.60;;;;;;5051631;28;20036;-85
2022/11/30 01:04:31;;;;;;;14.30;10.73;;;9.40;87.60;;;;;;5020948;28;20022;-85
2022/11/30 01:06:57;;;;;;;13.00;9.88;;;9.30;87.60;;;;;;5013570;28;20120;-85
2022/11/30 01:09:22;;;;;;;16.83;11.88;;;9.30;87.60;;;;;;5012345;28;20025;-85
2022/11/30 01:11:48;;;;;;;16.40;10.82;;;9.40;87.60;;;;;;5008666;28;20389;-86
2022/11/30 01:14:13;;;;;;;17.50;12.48;;;9.40;87.50;;;;;;5012499;28;20111;-85
2022/11/30 01:16:39;;;;;;;16.40;11.70;;;9.30;87.40;;;;;;5026947;28;20038;-85
2022/11/30 01:19:05;;;;;;;14.40;10.52;;;9.30;87.50;;;;;;5014371;28;20485;-85
2022/11/30 01:21:30;;;;;;;16.23;11.48;;;9.30;87.50;;;;;;5027589;28;20021;-85
2022/11/30 01:23:56;;;;;;;14.75;11.25;;;9.20;87.60;;;;;;5030297;28;20022;-87
2022/11/30 01:26:22;;;;;;;14.95;11.15;;;9.30;87.70;;;;;;5029749;28;20033;-87
2022/11/30 01:28:52;;;;;;;14.98;11.07;;;9.20;87.70;;;;;;5016859;28;20029;-87
2022/11/30 01:31:19;;;;;;;15.00;10.95;;;9.20;87.80;;;;;;5027175;28;20032;-88
2022/11/30 01:33:53;;;;;;;13.70;10.23;;;9.20;87.90;;;;;;5030584;28;20109;-88
2022/11/30 01:36:25;;;;;;;15.57;10.60;;;9.20;87.90;;;;;;5033412;28;20065;-87
2022/11/30 01:38:54;;;;;;;17.00;11.45;;;9.20;87.80;;;;;;5023888;28;20026;-86
2022/11/30 01:41:26;;;;;;;16.35;11.88;;;9.20;87.80;;;;;;5002739;28;20116;-86
2022/11/30 01:43:54;;;;;;;16.73;12.48;;;9.20;87.60;;;;;;5027665;28;20484;-86
2022/11/30 01:46:37;;;;;;;14.60;10.18;;;9.20;87.60;;;;;;5010076;28;20504;-87
2022/11/30 01:49:12;;;;;;;15.55;11.65;;;9.20;87.50;;;;;;5024668;28;20050;-87
2022/11/30 01:51:52;;;;;;;14.65;10.35;;;9.10;87.50;;;;;;5028458;28;20022;-87
2022/11/30 01:54:23;;;;;;;16.20;11.63;;;9.10;87.60;;;;;;5029508;28;20095;-85
2022/11/30 01:56:56;;;;;;;13.73;9.85;;;9.10;87.50;;;;;;5023616;28;20070;-85
2022/11/30 01:59:24;;;;;;;15.73;11.27;;;9.20;87.60;;;;;;5028915;28;20034;-86
2022/11/30 02:01:51;;;;;;;16.55;11.77;;;9.10;87.40;;;;;;5026259;28;20033;-86
2022/11/30 02:04:25;;;;;;;14.38;10.40;;;9.20;87.40;;;;;;5028641;28;20028;-86
2022/11/30 02:06:51;;;;;;;15.93;11.35;;;9.20;87.20;;;;;;5009181;28;20555;-86
2022/11/30 02:09:18;;;;;;;15.88;10.80;;;9.20;87.10;;;;;;5027781;28;20483;-85
2022/11/30 02:11:44;;;;;;;16.25;10.70;;;9.20;87.10;;;;;;5026135;28;20032;-85
2022/11/30 02:14:32;;;;;;;14.60;10.55;;;9.20;87.10;;;;;;5028894;28;20092;-86
2022/11/30 02:17:21;;;;;;;14.40;10.52;;;9.20;87.10;;;;;;5026607;28;20044;-85
2022/11/30 02:19:58;;;;;;;15.32;10.65;;;9.20;87.10;;;;;;5028451;28;20028;-86
2022/11/30 02:23:03;;;;;;;15.73;11.30;;;9.20;87.20;;;;;;5029139;28;20466;-85
2022/11/30 02:25:43;;;;;;;15.70;11.10;;;9.20;87.10;;;;;;5023844;28;20436;-85
2022/11/30 02:28:34;;;;;;;14.52;10.63;;;9.20;87.20;;;;;;5023984;28;20033;-86
2022/11/30 02:31:04;;;;;;;14.32;10.15;;;9.20;87.20;;;;;;5028426;28;20456;-86
2022/11/30 02:33:32;;;;;;;14.68;10.93;;;9.20;87.20;;;;;;5030440;28;20100;-85
2022/11/30 02:35:59;;;;;;;14.88;10.48;;;9.20;87.20;;;;;;5030408;28;20424;-85
2022/11/30 02:38:26;;;;;;;16.45;11.25;;;9.20;87.20;;;;;;5033224;28;20025;-85
2022/11/30 02:40:52;;;;;;;16.15;10.95;;;9.20;87.20;;;;;;5033708;28;20021;-85
2022/11/30 02:43:21;;;;;;;15.95;11.90;;;9.20;87.20;;;;;;5031529;28;20372;-84
2022/11/30 02:46:01;;;;;;;14.57;10.15;;;9.20;87.20;;;;;;5050037;28;20025;-85
2022/11/30 02:49:01;;;;;;;15.57;11.57;;;9.20;87.20;;;;;;5049123;28;20146;-85
2022/11/30 02:51:28;;;;;;;15.25;10.73;;;9.10;87.20;;;;;;4993233;28;20049;-85
2022/11/30 02:53:54;;;;;;;14.70;10.25;;;9.10;87.20;;;;;;5033369;28;20052;-84
2022/11/30 02:56:21;;;;;;;18.00;12.00;;;9.10;87.20;;;;;;5049781;28;20075;-85
2022/11/30 02:58:47;;;;;;;16.75;11.60;;;9.00;87.20;;;;;;5049238;28;20431;-85
2022/11/30 03:01:12;;;;;;;15.23;10.32;;;9.00;87.20;;;;;;5042608;28;20037;-85
2022/11/30 03:03:38;;;;;;;15.55;10.55;;;9.00;87.30;;;;;;5030020;28;20491;-85
2022/11/30 03:06:04;;;;;;;16.10;11.23;;;9.00;87.30;;;;;;5027685;28;20029;-86
2022/11/30 03:08:29;;;;;;;15.15;9.90;;;9.00;87.30;;;;;;5012082;28;20116;-85
2022/11/30 03:10:55;;;;;;;16.02;11.40;;;9.00;87.40;;;;;;5012149;28;20030;-85
2022/11/30 03:13:20;;;;;;;14.75;10.38;;;9.00;87.40;;;;;;5026301;28;20488;-85
2022/11/30 03:15:46;;;;;;;16.17;10.68;;;9.00;87.40;;;;;;5028413;28;20064;-85
2022/11/30 03:18:13;;;;;;;15.77;10.68;;;9.00;87.30;;;;;;5005812;28;20075;-86
2022/11/30 03:20:42;;;;;;;14.82;10.60;;;9.00;87.30;;;;;;5027592;28;20026;-85
2022/11/30 03:23:07;;;;;;;16.00;11.07;;;9.00;87.30;;;;;;5007730;28;20079;-85
2022/11/30 03:25:33;;;;;;;16.70;11.75;;;8.90;87.20;;;;;;5031629;28;20026;-84
2022/11/30 03:28:00;;;;;;;15.02;10.55;;;8.90;87.20;;;;;;5032293;28;20068;-84
2022/11/30 03:30:26;;;;;;;13.90;9.73;;;8.90;87.30;;;;;;5010343;28;20021;-86
2022/11/30 03:32:52;;;;;;;14.98;10.60;;;8.90;87.30;;;;;;5026830;28;20104;-86
2022/11/30 03:35:17;;;;;;;15.40;10.98;;;8.90;87.30;;;;;;5031615;28;20408;-86
2022/11/30 03:37:43;;;;;;;16.20;11.85;;;8.80;87.30;;;;;;5030504;28;20103;-86
2022/11/30 03:40:10;;;;;;;15.05;10.98;;;8.80;87.40;;;;;;5032505;28;20395;-86
2022/11/30 03:42:36;;;;;;;15.88;10.63;;;8.70;87.40;;;;;;5027053;28;20524;-86
2022/11/30 03:45:01;;;;;;;14.98;10.23;;;8.70;88.10;;;;;;5025517;28;20029;-85
2022/11/30 03:47:27;;;;;;;18.45;10.20;;;8.70;87.50;;;;;;5029361;28;20018;-86
2022/11/30 03:49:52;;;;;;;13.82;10.73;;;8.60;87.50;;;;;;5008461;28;20420;-86
2022/11/30 03:52:19;;;;;;;14.38;10.05;;;8.60;87.70;;;;;;5032351;28;20472;-85
2022/11/30 03:54:45;;;;;;;16.08;9.98;;;8.50;87.70;;;;;;5032710;28;20068;-85
2022/11/30 03:57:11;;;;;;;13.50;9.68;;;8.50;87.70;;;;;;5030755;28;20504;-86
2022/11/30 03:59:36;;;;;;;14.45;10.15;;;8.50;87.80;;;;;;5046607;22;20505;-66
2022/11/30 04:02:02;;;;;;;14.15;9.90;;;8.50;87.80;;;;;;5033123;28;20021;-67
2022/11/30 04:04:27;;;;;;;14.73;10.25;;;8.40;87.90;;;;;;5034898;28;20025;-67
2022/11/30 04:06:53;;;;;;;16.08;11.20;;;8.40;87.80;;;;;;5035594;28;20029;-67
2022/11/30 04:09:18;;;;;;;15.80;10.38;;;8.40;87.70;;;;;;5031622;28;20040;-67
2022/11/30 04:11:44;;;;;;;13.60;9.35;;;8.40;87.70;;;;;;5039501;28;20029;-67
2022/11/30 04:14:09;;;;;;;16.10;11.63;;;8.30;87.70;;;;;;5034743;28;20048;-67
2022/11/30 04:16:35;;;;;;;17.73;11.38;;;8.30;87.80;;;;;;5031020;28;20021;-67
2022/11/30 04:19:01;;;;;;;15.65;10.82;;;8.30;87.80;;;;;;5032084;28;20021;-67
2022/11/30 04:21:26;;;;;;;14.18;10.38;;;8.20;87.70;;;;;;5036575;28;20475;-66
2022/11/30 04:23:52;;;;;;;14.52;10.40;;;8.20;87.70;;;;;;5033462;28;20147;-66
2022/11/30 04:26:18;;;;;;;14.38;10.38;;;8.20;87.70;;;;;;5017274;28;20469;-66
2022/11/30 04:28:43;;;;;;;16.15;10.95;;;8.10;87.70;;;;;;5028276;28;20507;-66
2022/11/30 04:31:09;;;;;;;14.45;9.85;;;8.10;87.70;;;;;;5042103;28;20480;-66
2022/11/30 04:33:35;;;;;;;17.23;11.32;;;8.00;87.70;;;;;;5016480;28;20140;-67
2022/11/30 04:36:04;;;;;;;13.85;10.15;;;8.00;87.80;;;;;;5033175;28;20109;-67
2022/11/30 04:38:31;;;;;;;14.30;10.75;;;7.90;87.80;;;;;;5033030;28;20493;-67
2022/11/30 04:40:57;;;;;;;14.35;9.98;;;7.90;87.80;;;;;;5033209;28;20013;-66
2022/11/30 04:43:23;;;;;;;16.75;11.10;;;7.80;87.80;;;;;;5033071;28;20025;-66
2022/11/30 04:45:49;;;;;;;15.25;10.93;;;7.90;87.90;;;;;;5033371;28;20025;-67
2022/11/30 04:48:16;;;;;;;13.25;9.45;;;7.80;87.70;;;;;;5032840;28;20039;-66
2022/11/30 04:50:41;;;;;;;16.40;11.18;;;7.80;87.80;;;;;;5014948;28;20072;-66
2022/11/30 04:53:07;;;;;;;15.07;10.23;;;7.80;87.90;;;;;;5032215;28;20492;-67
2022/11/30 04:55:35;;;;;;;15.88;10.88;;;7.70;88.40;;;;;;5032304;28;20030;-67
2022/11/30 04:58:00;;;;;;;15.40;10.35;;;7.70;88.50;;;;;;5032437;28;20026;-67
2022/11/30 05:00:26;;;;;;;15.38;10.45;;;7.60;87.90;;;;;;5014896;28;20369;-67
2022/11/30 05:02:53;;;;;;;14.63;10.25;;;7.60;87.90;;;;;;5031949;28;20100;-67
2022/11/30 05:05:19;;;;;;;13.98;9.48;;;7.60;87.90;;;;;;5030402;28;20021;-66
2022/11/30 05:07:49;;;;;;;13.40;9.50;;;7.60;88.00;;;;;;5019371;28;20032;-67
2022/11/30 05:10:15;;;;;;;16.23;10.13;;;7.50;87.90;;;;;;5031497;28;20390;-67
2022/11/30 05:12:41;;;;;;;14.38;10.23;;;7.50;87.90;;;;;;5033854;28;20083;-66
2022/11/30 05:15:07;;;;;;;25.63;9.02;;;7.40;87.90;;;;;;5027449;28;20025;-66
2022/11/30 05:17:32;;;;;;;20.40;9.57;;;7.40;87.90;;;;;;5027197;28;20037;-66
2022/11/30 05:19:58;;;;;;;20.30;8.25;;;7.40;87.90;;;;;;5033612;28;20030;-66
2022/11/30 05:22:23;;;;;;;38.38;9.02;;;7.40;88.00;;;;;;5030816;28;20029;-67
2022/11/30 05:24:49;;;;;;;31.95;8.15;;;7.40;88.00;;;;;;5008001;28;20025;-66
2022/11/30 05:27:15;;;;;;;47.00;9.25;;;7.30;88.00;;;;;;5034317;28;20021;-67
2022/11/30 05:29:40;;;;;;;31.58;9.10;;;7.40;88.00;;;;;;5029803;28;20105;-67
2022/11/30 05:32:06;;;;;;;35.95;8.23;;;7.40;88.10;;;;;;5030375;28;20033;-67
2022/11/30 05:34:31;;;;;;;47.38;8.00;;;7.40;88.10;;;;;;5029890;28;20040;-67
2022/11/30 05:36:57;;;;;;;73.72;8.18;;;7.40;88.00;;;;;;5026839;28;20116;-67
2022/11/30 05:39:22;;;;;;;37.53;6.72;;;7.40;87.90;;;;;;5034038;28;20104;-67
2022/11/30 05:41:48;;;;;;;92.13;9.13;;;7.40;87.90;;;;;;5017535;28;20489;-68
2022/11/30 05:44:14;;;;;;;36.83;8.05;;;7.40;87.90;;;;;;5034771;28;20032;-67
2022/11/30 05:46:39;;;;;;;33.42;7.13;;;7.40;88.10;;;;;;5041069;28;20078;-67
2022/11/30 05:49:05;;;;;;;14.23;6.15;;;7.30;87.90;;;;;;5031331;28;20091;-67
2022/11/30 05:51:31;;;;;;;33.92;7.65;;;7.30;88.00;;;;;;5032207;28;20057;-67
2022/11/30 05:53:57;;;;;;;32.00;6.13;;;7.20;88.10;;;;;;5031686;28;20501;-67
2022/11/30 05:56:23;;;;;;;34.30;7.47;;;7.20;88.20;;;;;;5012592;28;20491;-67
2022/11/30 05:58:48;;;;;;;39.53;7.57;;;7.20;88.10;;;;;;5027206;28;20301;-67
2022/11/30 06:01:25;;;;;;;31.58;7.38;;;7.20;88.20;;;;;;5037756;28;20098;-67
2022/11/30 06:03:51;;;;;;;33.30;7.07;;;7.10;88.10;;;;;;5012973;28;20024;-67
2022/11/30 06:06:17;;;;;;;32.50;6.30;;;7.10;88.10;;;;;;5026982;28;20029;-67
2022/11/30 06:08:44;;;;;;;39.40;7.50;;;7.10;88.10;;;;;;5011047;28;20021;-66
2022/11/30 06:11:10;;;;;;;21.52;6.47;;;7.10;88.00;;;;;;5030751;28;20031;-66
2022/11/30 06:13:36;;;;;;;27.40;7.13;;;7.00;88.00;;;;;;5032817;28;20033;-67
2022/11/30 06:16:03;;;;;;;24.83;5.18;;;7.10;88.10;;;;;;5009118;28;20028;-67
2022/11/30 06:18:29;;;;;;;35.58;5.90;;;7.00;88.00;;;;;;5032466;28;20037;-68
2022/11/30 06:21:00;;;;;;;37.80;6.15;;;7.00;88.00;;;;;;5026035;28;20018;-67
2022/11/30 06:23:26;;;;;;;45.30;5.75;;;7.00;87.90;;;;;;5033783;28;20080;-67
2022/11/30 06:25:51;;;;;;;27.52;6.30;;;7.00;87.90;;;;;;5031691;28;20030;-67
2022/11/30 06:28:17;;;;;;;28.55;5.32;;;6.90;88.00;;;;;;5034082;28;20040;-67
2022/11/30 06:30:44;;;;;;;30.08;5.07;;;6.80;88.00;;;;;;5008659;28;20044;-67
2022/11/30 06:33:10;;;;;;;31.65;5.70;;;6.80;88.10;;;;;;5032331;28;20080;-67
2022/11/30 06:35:36;;;;;;;33.05;5.65;;;6.80;88.10;;;;;;5031673;28;20049;-67
2022/11/30 06:38:01;;;;;;;28.48;5.93;;;6.80;88.00;;;;;;5038025;28;20060;-67
2022/11/30 06:40:27;;;;;;;27.52;5.40;;;6.80;88.10;;;;;;5028527;28;20553;-67
2022/11/30 06:42:53;;;;;;;52.55;6.53;;;6.80;88.10;;;;;;5031820;28;20079;-67
2022/11/30 06:45:19;;;;;;;33.55;5.28;;;6.80;88.10;;;;;;5039845;28;20024;-66
2022/11/30 06:47:44;;;;;;;37.72;6.07;;;6.70;88.10;;;;;;5033973;28;20026;-67
2022/11/30 06:50:12;;;;;;;38.33;5.82;;;6.70;88.10;;;;;;5031300;28;20030;-68
2022/11/30 06:52:38;;;;;;;38.85;6.25;;;6.70;88.10;;;;;;5034744;28;20068;-68
2022/11/30 06:55:04;;;;;;;47.65;6.20;;;6.70;88.10;;;;;;5011894;28;20017;-68
2022/11/30 06:57:30;;;;;;;24.55;5.28;;;6.70;88.30;;;;;;5027470;28;20025;-67
2022/11/30 06:59:56;;;;;;;44.38;6.07;;;6.70;88.30;;;;;;5030439;28;20026;-68
2022/11/30 07:02:22;;;;;;;31.73;5.85;;;6.70;88.30;;;;;;5027318;28;20215;-67
2022/11/30 07:04:48;;;;;;;39.88;5.40;;;6.70;88.40;;;;;;5007797;28;20033;-68
2022/11/30 07:07:14;;;;;;;26.10;5.10;;;6.60;88.40;;;;;;5029512;28;20434;-67
2022/11/30 07:09:40;;;;;;;30.73;4.60;;;6.60;88.40;;;;;;5011289;28;20071;-67
2022/11/30 07:12:06;;;;;;;21.77;4.90;;;6.60;88.30;;;;;;5027945;28;20099;-68
2022/11/30 07:14:32;;;;;;;21.83;5.00;;;6.60;88.40;;;;;;5036830;28;20037;-67
2022/11/30 07:16:58;;;;;;;22.08;5.80;;;6.50;88.20;;;;;;5030534;28;20037;-67
2022/11/30 07:19:24;;;;;;;20.13;5.13;;;6.50;88.30;;;;;;5018881;28;20021;-67
2022/11/30 07:21:49;;;;;;;22.40;5.90;;;6.50;88.20;;;;;;5038572;28;20028;-67
2022/11/30 07:27:00;;;;;;;22.60;5.72;;;6.60;88.20;;;;;;5031725;28;20045;-65
2022/11/30 07:29:26;;;;;;;16.80;5.20;;;6.60;88.10;;;;;;5030028;28;20390;-65
2022/11/30 07:31:53;;;;;;;17.23;5.18;;;6.60;88.10;;;;;;5031477;28;20041;-66
2022/11/30 07:34:19;;;;;;;12.77;6.05;;;6.60;88.20;;;;;;5030770;28;20028;-65
2022/11/30 07:36:45;;;;;;;20.23;5.18;;;6.60;88.20;;;;;;5030331;28;20025;-67
2022/11/30 07:39:12;;;;;;;25.77;6.43;;;6.60;88.20;;;;;;5031955;28;20822;-65
2022/11/30 07:41:38;;;;;;;20.40;5.95;;;6.60;88.10;;;;;;5030142;28;20025;-65
2022/11/30 07:44:04;;;;;;;17.70;6.43;;;6.70;88.10;;;;;;5029818;28;20026;-66
2022/11/30 07:46:32;;;;;;;11.10;7.10;;;6.70;88.00;;;;;;5026477;28;20543;-65
2022/11/30 07:48:58;;;;;;;11.35;6.82;;;6.70;88.00;;;;;;5028242;28;20116;-67
2022/11/30 07:51:24;;;;;;;8.75;6.43;;;6.70;88.00;;;;;;5030393;28;20092;-67
2022/11/30 07:53:49;;;;;;;9.73;7.60;;;6.70;88.00;;;;;;5029760;28;20044;-68
2022/11/30 07:56:17;;;;;;;11.07;8.07;;;6.80;87.90;;;;;;5029633;28;20026;-67
2022/11/30 07:58:43;;;;;;;9.88;7.00;;;6.80;87.90;;;;;;5028843;28;20053;-67
2022/11/30 08:01:15;;;;;;;10.43;6.65;;;6.80;87.70;;;;;;5027387;28;20025;-65
2022/11/30 08:03:41;;;;;;;10.55;7.70;;;6.90;87.70;;;;;;5028921;28;20028;-67
2022/11/30 08:06:12;;;;;;;11.27;7.70;;;6.90;87.70;;;;;;5029772;28;20491;-66
2022/11/30 08:08:41;;;;;;;12.57;9.13;;;6.90;87.70;;;;;;5032843;28;20510;-66
2022/11/30 08:11:09;;;;;;;10.52;7.70;;;7.00;87.60;;;;;;5040636;28;20041;-65
2022/11/30 08:13:34;;;;;;;13.52;9.48;;;7.00;87.50;;;;;;5038096;28;20454;-67
2022/11/30 08:16:05;;;;;;;12.90;9.98;;;7.00;87.50;;;;;;5034526;28;20104;-66
2022/11/30 08:18:31;;;;;;;13.05;8.73;;;7.00;87.60;;;;;;5029293;28;20022;-66
2022/11/30 08:21:03;;;;;;;12.95;9.48;;;7.00;87.60;;;;;;5033181;28;20534;-67
2022/11/30 08:23:35;;;;;;;12.32;9.10;;;7.00;87.70;;;;;;5038264;28;20518;-67
2022/11/30 08:26:12;;;;;;;14.55;10.30;;;7.10;87.90;;;;;;5027720;28;20025;-66
2022/11/30 08:28:39;;;;;;;15.35;10.18;;;7.10;87.80;;;;;;5014682;28;20119;-65
2022/11/30 08:31:07;;;;;;;16.52;11.27;;;7.20;87.80;;;;;;5014839;28;20072;-66
2022/11/30 08:33:34;;;;;;;16.67;10.23;;;7.20;87.70;;;;;;5019366;28;20072;-66
2022/11/30 08:36:16;;;;;;;15.05;10.63;;;7.30;87.80;;;;;;5015134;28;20029;-66
2022/11/30 08:38:43;;;;;;;13.07;9.52;;;7.30;87.60;;;;;;5014947;28;20030;-66
2022/11/30 08:41:11;;;;;;;14.13;9.57;;;7.30;87.50;;;;;;5032275;28;20025;-67
2022/11/30 08:43:37;;;;;;;16.75;11.70;;;7.40;87.60;;;;;;5031427;28;20475;-67
2022/11/30 08:46:05;;;;;;;17.83;11.65;;;7.40;87.60;;;;;;5032731;28;20071;-65
2022/11/30 08:48:31;;;;;;;15.10;10.60;;;7.40;87.60;;;;;;5032496;28;20032;-67
2022/11/30 08:51:01;;;;;;;14.10;10.57;;;7.50;87.60;;;;;;5032486;28;20037;-66
2022/11/30 08:53:26;;;;;;;17.10;10.95;;;7.50;87.50;;;;;;5032423;28;20077;-65
2022/11/30 08:56:01;;;;;;;18.58;12.10;;;7.50;87.50;;;;;;5032449;28;20062;-66
2022/11/30 08:58:30;;;;;;;15.60;11.35;;;7.50;87.40;;;;;;5031600;28;20025;-66
2022/11/30 09:01:07;;;;;;;15.02;10.52;;;7.50;87.40;;;;;;5032307;28;20032;-66
2022/11/30 09:03:32;;;;;;;14.77;9.75;;;7.50;87.40;;;;;;5024017;28;20022;-67
2022/11/30 09:06:06;;;;;;;16.70;10.77;;;7.60;87.50;;;;;;5031980;28;20036;-67
2022/11/30 09:08:33;;;;;;;17.95;11.75;;;7.50;87.30;;;;;;5025285;28;20021;-66
2022/11/30 09:11:06;;;;;;;18.10;11.75;;;7.50;87.30;;;;;;5032013;28;20036;-67
2022/11/30 09:13:31;;;;;;;16.00;11.07;;;7.50;87.30;;;;;;5031852;28;20025;-67
2022/11/30 09:15:57;;;;;;;14.57;9.93;;;7.60;87.30;;;;;;5031171;28;20076;-66
2022/11/30 09:18:22;;;;;;;17.08;10.85;;;7.60;87.40;;;;;;5030996;28;20533;-66
2022/11/30 09:20:48;;;;;;;15.35;10.07;;;7.70;87.40;;;;;;5030850;28;20107;-66
2022/11/30 09:23:13;;;;;;;15.18;9.48;;;7.70;87.20;;;;;;5032007;28;20161;-66
2022/11/30 09:25:39;;;;;;;18.10;11.88;;;7.80;87.20;;;;;;5029478;28;20080;-66
2022/11/30 09:28:04;;;;;;;20.30;12.82;;;7.80;87.20;;;;;;5030924;28;20029;-66
2022/11/30 09:30:30;;;;;;;17.38;10.85;;;7.80;87.20;;;;;;5031701;28;20036;-66
2022/11/30 09:32:59;;;;;;;18.15;11.65;;;7.90;87.20;;;;;;5031222;28;20134;-66
2022/11/30 09:35:24;;;;;;;16.45;11.30;;;8.00;87.20;;;;;;5013467;28;20068;-65
2022/11/30 09:37:52;;;;;;;22.08;14.52;;;8.00;87.20;;;;;;5031042;28;20037;-66
2022/11/30 09:40:21;;;;;;;19.67;12.88;;;8.00;87.10;;;;;;5043108;28;20029;-67
2022/11/30 09:43:19;;;;;;;16.90;11.20;;;8.00;87.10;;;;;;5034411;28;20056;-67
2022/11/30 09:45:52;;;;;;;16.67;11.43;;;8.00;87.00;;;;;;5024487;28;20121;-67
2022/11/30 09:48:42;;;;;;;17.58;11.55;;;8.00;87.20;;;;;;5030483;28;20037;-66
2022/11/30 09:51:16;;;;;;;13.50;9.25;;;8.10;87.30;;;;;;5011870;28;20053;-67
2022/11/30 09:53:52;;;;;;;16.10;10.65;;;8.10;87.20;;;;;;5026927;28;20029;-68
2022/11/30 09:56:29;;;;;;;16.70;10.73;;;8.10;87.20;;;;;;5030987;28;20369;-67
2022/11/30 09:59:21;;;;;;;15.35;10.48;;;8.20;87.10;;;;;;5026439;28;20503;-67
2022/11/30 10:01:47;;;;;;;15.88;10.05;;;8.20;87.00;;;;;;5027276;28;20030;-66
2022/11/30 10:04:27;;;;;;;14.38;9.93;;;8.30;87.00;;;;;;5029156;28;20032;-66
2022/11/30 10:06:53;;;;;;;15.63;10.52;;;8.30;87.10;;;;;;5029067;28;20475;-67
2022/11/30 10:09:44;;;;;;;19.10;11.75;;;8.30;86.90;;;;;;5028936;28;20059;-67
2022/11/30 10:12:51;;;;;;;17.88;11.98;;;8.30;86.90;;;;;;5027634;28;20518;-67
2022/11/30 10:15:32;;;;;;;17.02;11.80;;;8.30;86.80;;;;;;4990653;28;20041;-67
2022/11/30 10:18:16;;;;;;;17.50;11.45;;;8.40;86.90;;;;;;5028752;28;20136;-67
2022/11/30 10:21:19;;;;;;;19.63;13.02;;;8.50;86.80;;;;;;5029346;28;20021;-68
2022/11/30 10:24:10;;;;;;;18.33;12.57;;;8.50;86.80;;;;;;5028702;28;20025;-67
2022/11/30 10:26:38;;;;;;;19.88;13.07;;;8.50;86.80;;;;;;5030135;28;20021;-68
2022/11/30 10:29:31;;;;;;;17.00;11.48;;;8.50;86.90;;;;;;5029980;28;20032;-68
2022/11/30 10:31:59;;;;;;;20.25;13.93;;;8.50;86.90;;;;;;5027959;28;20041;-67
2022/11/30 10:34:52;;;;;;;19.75;12.65;;;8.50;87.00;;;;;;5029991;28;20029;-67
2022/11/30 10:37:21;;;;;;;19.30;13.27;;;8.50;87.00;;;;;;5008413;28;20099;-66
2022/11/30 10:40:07;;;;;;;16.58;11.32;;;8.60;87.00;;;;;;5023913;28;20021;-67
2022/11/30 10:42:49;;;;;;;18.48;12.90;;;8.60;87.10;;;;;;5023739;28;20100;-67
2022/11/30 10:45:22;;;;;;;21.55;14.43;;;8.60;87.30;;;;;;5030308;28;20534;-67
2022/11/30 10:48:05;;;;;;;20.05;13.02;;;8.70;88.00;;;;;;5030388;28;20021;-67
2022/11/30 10:50:31;;;;;;;17.15;10.93;;;8.70;87.40;;;;;;5030593;28;20060;-67
2022/11/30 10:52:59;;;;;;;18.20;12.30;;;8.80;87.40;;;;;;5013715;28;20021;-67
2022/11/30 10:55:39;;;;;;;19.83;13.63;;;8.80;87.30;;;;;;5028433;28;20020;-67
2022/11/30 10:58:27;;;;;;;18.73;13.65;;;8.90;87.30;;;;;;5027869;28;20384;-67
2022/11/30 11:01:03;;;;;;;17.95;12.85;;;8.90;87.30;;;;;;5030735;28;20120;-68
2022/11/30 11:03:29;;;;;;;19.27;13.43;;;9.00;87.40;;;;;;5013065;28;20459;-67
2022/11/30 11:06:24;;;;;;;20.80;14.32;;;9.00;87.30;;;;;;5031055;28;20064;-67
2022/11/30 11:08:50;;;;;;;19.85;13.60;;;9.10;87.50;;;;;;5012355;28;20114;-67
2022/11/30 11:11:37;;;;;;;20.80;14.75;;;9.20;87.40;;;;;;5025823;28;20033;-67
2022/11/30 11:14:08;;;;;;;21.63;14.45;;;9.20;87.30;;;;;;5030325;28;20074;-67
2022/11/30 11:16:51;;;;;;;20.15;14.38;;;9.30;87.30;;;;;;5026622;28;20033;-67
2022/11/30 11:19:31;;;;;;;21.75;15.40;;;9.30;87.20;;;;;;5035322;28;20493;-67
2022/11/30 11:21:59;;;;;;;22.33;15.93;;;9.30;87.10;;;;;;5028681;28;20052;-67
2022/11/30 11:24:26;;;;;;;20.95;14.35;;;9.30;87.10;;;;;;5026398;28;20025;-67
2022/11/30 11:26:54;;;;;;;20.60;14.25;;;9.40;87.00;;;;;;5008850;28;20030;-67
2022/11/30 11:29:32;;;;;;;20.42;14.68;;;9.40;86.90;;;;;;5026925;28;20084;-67
2022/11/30 11:32:25;;;;;;;21.50;14.10;;;9.40;86.70;;;;;;5025642;28;20104;-67
2022/11/30 11:34:52;;;;;;;22.67;15.27;;;9.40;86.60;;;;;;5028185;28;20452;-67
2022/11/30 11:37:32;;;;;;;20.50;14.68;;;9.50;86.50;;;;;;5028779;28;20033;-67
2022/11/30 11:40:06;;;;;;;22.23;13.57;;;9.50;86.40;;;;;;5011037;28;20026;-67
2022/11/30 11:42:43;;;;;;;20.08;14.00;;;9.60;86.20;;;;;;5023938;28;20493;-67
2022/11/30 11:45:21;;;;;;;22.67;15.27;;;9.60;86.00;;;;;;5031352;28;20043;-66
2022/11/30 11:48:16;;;;;;;20.27;13.75;;;9.70;85.80;;;;;;5027470;28;20471;-66
2022/11/30 11:50:56;;;;;;;21.08;14.38;;;9.70;85.60;;;;;;5032791;28;20108;-67
2022/11/30 11:53:43;;;;;;;17.75;12.75;;;9.80;85.50;;;;;;5033006;28;20090;-67
2022/11/30 11:56:30;;;;;;;18.45;12.52;;;9.90;85.40;;;;;;5031464;28;20025;-67
2022/11/30 11:59:08;;;;;;;19.83;13.45;;;10.00;85.00;;;;;;5033864;28;20018;-67
2022/11/30 12:01:42;;;;;;;17.27;12.68;;;10.00;84.70;;;;;;5013394;28;20037;-67
2022/11/30 12:04:19;;;;;;;21.85;14.43;;;10.00;84.60;;;;;;5030235;28;20099;-67
2022/11/30 12:06:47;;;;;;;18.23;13.10;;;9.90;84.40;;;;;;5031574;28;20543;-67
2022/11/30 12:09:24;;;;;;;18.88;12.15;;;9.80;84.50;;;;;;5031650;28;20527;-67
2022/11/30 12:11:49;;;;;;;16.50;11.55;;;9.80;84.50;;;;;;5023184;28;20105;-66
2022/11/30 12:14:17;;;;;;;18.30;11.73;;;9.80;84.50;;;;;;5014449;28;20113;-67
2022/11/30 12:17:07;;;;;;;18.30;12.90;;;9.80;84.50;;;;;;5029932;28;20189;-67
2022/11/30 12:19:56;;;;;;;24.95;16.63;;;9.80;84.80;;;;;;5013440;28;20036;-67
2022/11/30 12:22:46;;;;;;;21.50;13.93;;;9.90;84.40;;;;;;5030783;28;20033;-67
2022/11/30 12:25:28;;;;;;;25.73;16.60;;;9.80;84.00;;;;;;5031768;28;20554;-67
2022/11/30 12:28:13;;;;;;;31.02;19.55;;;9.70;83.70;;;;;;5029427;28;20479;-67
2022/11/30 12:30:59;;;;;;;27.23;18.52;;;9.50;83.30;;;;;;5031159;28;20090;-68
2022/11/30 12:33:52;;;;;;;22.88;14.57;;;9.40;83.50;;;;;;5030702;28;20029;-66
2022/11/30 12:36:20;;;;;;;28.27;18.52;;;9.50;83.70;;;;;;5031021;28;20032;-67
2022/11/30 12:38:52;;;;;;;20.40;13.75;;;9.40;83.50;;;;;;5013647;28;20383;-67
2022/11/30 12:41:20;;;;;;;19.55;13.45;;;9.40;83.60;;;;;;5013205;28;20115;-67
2022/11/30 12:44:02;;;;;;;19.02;13.05;;;9.40;83.70;;;;;;5013749;28;20056;-67
2022/11/30 12:46:40;;;;;;;18.80;12.13;;;9.40;83.70;;;;;;5031274;28;20029;-67
2022/11/30 12:49:24;;;;;;;18.95;12.50;;;9.60;83.40;;;;;;5016791;28;20063;-67
2022/11/30 12:52:18;;;;;;;20.02;13.93;;;9.60;83.20;;;;;;5030660;28;20559;-67
2022/11/30 12:54:44;;;;;;;22.23;15.02;;;9.70;83.50;;;;;;5031411;28;20120;-66
2022/11/30 12:57:20;;;;;;;19.83;13.52;;;9.80;82.40;;;;;;5014056;28;20112;-67
2022/11/30 13:00:10;;;;;;;25.25;16.30;;;9.70;82.40;;;;;;5030538;28;20532;-67